Prudhoe Bay, Alaska
Current Conditions -  °F | °C
As of 6:53 PM on Saturday 22 Nov 2014 (Local Time) from PASC Reporting Station
Blowing Snow Blowing Snow  
Wind Chill: -26°   Ceiling: Unl
Heat Index: -14°   Visibility: 4mi
Dew Point: -17°   Wind: 26mph
Humidity: 80%   Direction: 90°E
Pressure: 29.73"   Gusts: NA
Location:  70.28°N, 148.38°W
Report Text: PASC 230353Z 09023KT 4SM BLSN CLR M14/M17 A2973 RMK AO2 PK WND 09028/0258 SLP068 T11391167
Loading
Personal Weather Stations






























Interactive Weather Map New forecast layout! Learn more

10-Day Weather Forecast

Advertisements
Track Severe Weather on mobile